Time;durP1;ratioP1;P1;durP2;ratioP2;P2;SDS_P1;SDS_P2;PMS_P1;PMS_P2;Temp;Humidity;BMP_temperature;BMP_pressure;BME280_temperature;BME280_humidity;BME280_pressure;Samples;Min_cycle;Max_cycle;Signal;HPM_P1;HPM_P2
2022/05/04 00:00:51;;;;;;;6.80;5.57;;;10.60;99.90;;;;;;5013889;28;20206;-61
2022/05/04 00:03:18;;;;;;;12.10;5.80;;;10.60;99.90;;;;;;5013935;28;20186;-61
2022/05/04 00:05:46;;;;;;;10.33;5.80;;;10.60;99.90;;;;;;5013784;28;20211;-61
2022/05/04 00:08:13;;;;;;;10.00;5.87;;;10.60;99.90;;;;;;5039604;28;20265;-61
2022/05/04 00:10:41;;;;;;;9.17;5.70;;;10.60;99.90;;;;;;5052971;28;20232;-61
2022/05/04 00:13:09;;;;;;;10.57;5.80;;;10.60;99.90;;;;;;5053122;28;20218;-61
2022/05/04 00:15:36;;;;;;;10.30;5.50;;;10.60;99.90;;;;;;5052939;28;20201;-61
2022/05/04 00:18:03;;;;;;;7.50;5.33;;;10.70;99.90;;;;;;5052982;28;20195;-61
2022/05/04 00:20:30;;;;;;;9.20;5.20;;;10.70;99.90;;;;;;5053077;28;20296;-61
2022/05/04 00:22:57;;;;;;;10.90;5.30;;;10.70;99.90;;;;;;5053049;28;20202;-61
2022/05/04 00:25:24;;;;;;;7.90;5.47;;;10.70;99.90;;;;;;5052669;28;20554;-61
2022/05/04 00:27:53;;;;;;;8.23;5.07;;;10.70;99.90;;;;;;5053111;28;20213;-61
2022/05/04 00:30:20;;;;;;;8.20;5.10;;;10.60;99.90;;;;;;5052566;28;20648;-61
2022/05/04 00:32:47;;;;;;;11.83;5.70;;;10.60;99.90;;;;;;5052005;28;20232;-61
2022/05/04 00:35:14;;;;;;;9.17;5.17;;;10.70;99.90;;;;;;5052666;28;20228;-60
2022/05/04 00:37:41;;;;;;;10.70;5.30;;;10.60;99.90;;;;;;5052698;28;20207;-61
2022/05/04 00:40:09;;;;;;;9.93;5.17;;;10.70;99.90;;;;;;5052508;28;20271;-61
2022/05/04 00:42:37;;;;;;;10.50;5.23;;;10.70;99.90;;;;;;5052663;28;20581;-61
2022/05/04 00:45:06;;;;;;;8.97;4.87;;;10.70;99.90;;;;;;5052675;28;20206;-61
2022/05/04 00:47:34;;;;;;;8.70;5.10;;;10.60;99.90;;;;;;5052342;28;20191;-61
2022/05/04 00:50:04;;;;;;;7.43;5.17;;;10.60;99.90;;;;;;5052529;28;20207;-61
2022/05/04 00:52:32;;;;;;;6.97;4.87;;;10.60;99.90;;;;;;5052437;28;20239;-61
2022/05/04 00:55:01;;;;;;;9.03;5.60;;;10.60;99.90;;;;;;5052441;28;20207;-61
2022/05/04 01:00:16;;;;;;;9.27;5.23;;;10.60;99.90;;;;;;5052375;28;20321;-61
2022/05/04 01:02:44;;;;;;;9.63;5.27;;;10.50;99.90;;;;;;5052433;28;20208;-61
2022/05/04 01:05:11;;;;;;;8.77;4.90;;;10.50;99.90;;;;;;5052444;28;20197;-61
2022/05/04 01:07:39;;;;;;;9.83;5.90;;;10.40;99.90;;;;;;5052378;28;20235;-61
2022/05/04 01:10:08;;;;;;;9.50;5.73;;;10.40;99.90;;;;;;5052772;28;20220;-62
2022/05/04 01:12:36;;;;;;;10.43;5.30;;;10.40;99.90;;;;;;5052427;28;20211;-61
2022/05/04 01:15:03;;;;;;;10.00;5.23;;;10.30;99.90;;;;;;5052791;28;20551;-61
2022/05/04 01:17:32;;;;;;;7.37;5.20;;;10.30;99.90;;;;;;5051979;28;20209;-61
2022/05/04 01:19:59;;;;;;;8.53;5.00;;;10.30;99.90;;;;;;5052714;28;20261;-61
2022/05/04 01:22:27;;;;;;;8.90;5.00;;;10.30;99.90;;;;;;5052758;28;20189;-61
2022/05/04 01:24:54;;;;;;;7.27;4.87;;;10.30;99.90;;;;;;5052818;28;20311;-61
2022/05/04 01:27:21;;;;;;;8.50;5.07;;;10.30;99.90;;;;;;5052213;28;20196;-61
2022/05/04 01:29:48;;;;;;;10.47;5.47;;;10.30;99.90;;;;;;5052335;28;20196;-61
2022/05/04 01:32:15;;;;;;;11.70;5.07;;;10.30;99.90;;;;;;5052426;28;20224;-61
2022/05/04 01:34:42;;;;;;;8.03;5.60;;;10.30;99.90;;;;;;5052434;28;20598;-61
2022/05/04 01:37:09;;;;;;;12.13;5.50;;;10.30;99.90;;;;;;5052630;28;20200;-61
2022/05/04 01:39:37;;;;;;;10.30;5.80;;;10.20;99.90;;;;;;5052433;28;20211;-61
2022/05/04 01:42:05;;;;;;;9.03;5.90;;;10.20;99.90;;;;;;5052261;28;20202;-61
2022/05/04 01:44:33;;;;;;;11.77;5.70;;;10.20;99.90;;;;;;5054750;28;20208;-61
2022/05/04 01:47:01;;;;;;;5.77;5.10;;;10.10;99.90;;;;;;5056551;28;20205;-61
2022/05/04 01:49:28;;;;;;;11.20;5.40;;;10.10;99.90;;;;;;5056359;28;20228;-61
2022/05/04 01:51:55;;;;;;;10.87;5.50;;;10.10;99.90;;;;;;5056719;28;20216;-61
2022/05/04 01:54:24;;;;;;;10.53;5.87;;;10.20;99.90;;;;;;5056223;28;20203;-64
2022/05/04 01:56:52;;;;;;;8.63;5.53;;;10.20;99.90;;;;;;5055973;28;20519;-64
2022/05/04 01:59:19;;;;;;;8.77;5.40;;;10.10;99.90;;;;;;5056809;28;20190;-64
2022/05/04 02:01:46;;;;;;;10.93;5.83;;;10.10;99.90;;;;;;5056087;28;20250;-64
2022/05/04 02:04:14;;;;;;;10.53;6.23;;;10.10;99.90;;;;;;5056159;28;20197;-63
2022/05/04 02:06:41;;;;;;;10.23;5.63;;;10.10;99.90;;;;;;5055839;28;20196;-64
2022/05/04 02:09:08;;;;;;;9.03;5.90;;;10.10;99.90;;;;;;5055287;28;20255;-64
2022/05/04 02:11:36;;;;;;;10.77;5.97;;;10.10;99.90;;;;;;5055261;28;20196;-64
2022/05/04 02:14:05;;;;;;;8.60;6.20;;;10.00;99.90;;;;;;5055289;28;20248;-64
2022/05/04 02:16:32;;;;;;;9.23;5.97;;;10.00;99.90;;;;;;5055374;28;20205;-64
2022/05/04 02:18:59;;;;;;;9.97;6.03;;;10.00;99.90;;;;;;5055570;28;20191;-64
2022/05/04 02:21:26;;;;;;;11.73;6.10;;;10.00;99.90;;;;;;5055520;28;20192;-64
2022/05/04 02:23:54;;;;;;;10.63;6.10;;;10.00;99.90;;;;;;5055511;28;20237;-64
2022/05/04 02:26:21;;;;;;;9.07;6.10;;;10.00;99.90;;;;;;5055361;28;20204;-64
2022/05/04 02:28:48;;;;;;;8.63;5.60;;;10.00;99.90;;;;;;5055002;28;20205;-64
2022/05/04 02:31:16;;;;;;;12.33;6.30;;;9.90;99.90;;;;;;5055335;28;20302;-64
2022/05/04 02:33:44;;;;;;;9.37;6.03;;;9.80;99.90;;;;;;5055275;28;20276;-63
2022/05/04 02:38:56;;;;;;;8.07;5.83;;;9.80;99.90;;;;;;5055228;28;20178;-64
2022/05/04 02:41:23;;;;;;;9.60;6.60;;;9.70;99.90;;;;;;5055121;28;20200;-64
2022/05/04 02:43:50;;;;;;;11.20;6.30;;;9.70;99.90;;;;;;5055188;28;20310;-64
2022/05/04 02:46:20;;;;;;;11.83;6.53;;;9.70;99.90;;;;;;5054896;28;20210;-63
2022/05/04 02:48:47;;;;;;;13.17;6.03;;;9.60;99.90;;;;;;5055053;28;20207;-64
2022/05/04 02:51:14;;;;;;;9.00;6.20;;;9.60;99.90;;;;;;5054985;28;20204;-64
2022/05/04 02:53:41;;;;;;;10.53;5.97;;;9.60;99.90;;;;;;5054874;28;20585;-63
2022/05/04 02:56:08;;;;;;;11.20;6.30;;;9.60;99.90;;;;;;5054198;28;20234;-63
2022/05/04 02:58:35;;;;;;;8.67;5.93;;;9.40;99.90;;;;;;5054460;28;20680;-64
2022/05/04 03:02:26;;;;;;;8.30;6.07;;;9.40;99.90;;;;;;5054824;28;20200;-63
2022/05/04 03:04:02;;;;;;;12.60;6.57;;;9.30;99.90;;;;;;5054446;28;20199;-63
2022/05/04 03:06:29;;;;;;;8.47;6.10;;;9.20;99.90;;;;;;5054738;28;20200;-63
2022/05/04 03:08:56;;;;;;;11.03;6.60;;;9.10;99.90;;;;;;5054279;28;20238;-63
2022/05/04 03:14:08;;;;;;;11.37;7.20;;;9.10;99.90;;;;;;5054530;28;20203;-63
2022/05/04 03:16:35;;;;;;;12.57;6.43;;;9.00;99.90;;;;;;5054357;28;20243;-63
2022/05/04 03:19:04;;;;;;;14.27;7.37;;;9.00;99.90;;;;;;5054528;28;20204;-63
2022/05/04 03:21:31;;;;;;;11.43;6.67;;;8.90;99.90;;;;;;5054712;28;20214;-64
2022/05/04 03:23:58;;;;;;;10.73;6.97;;;9.00;99.90;;;;;;5060504;28;20649;-64
2022/05/04 03:26:25;;;;;;;12.07;6.97;;;8.90;99.90;;;;;;5054166;28;20672;-64
2022/05/04 03:28:52;;;;;;;10.67;6.23;;;8.90;99.90;;;;;;5054158;28;20640;-64
2022/05/04 03:31:19;;;;;;;9.43;6.60;;;8.80;99.90;;;;;;5054269;28;20195;-63
2022/05/04 03:33:46;;;;;;;9.67;6.27;;;8.70;99.90;;;;;;5053851;28;20711;-63
2022/05/04 03:36:14;;;;;;;12.63;7.23;;;8.70;99.90;;;;;;5054184;28;20218;-63
2022/05/04 03:38:41;;;;;;;9.67;6.47;;;8.70;99.90;;;;;;5054196;28;20219;-64
2022/05/04 03:41:08;;;;;;;11.50;6.77;;;8.60;99.90;;;;;;5054052;28;20199;-64
2022/05/04 03:43:35;;;;;;;7.77;6.30;;;8.60;99.90;;;;;;5054007;28;20218;-64
2022/05/04 03:46:15;;;;;;;13.00;7.10;;;8.60;99.90;;;;;;5053861;28;20217;-64
2022/05/04 03:48:43;;;;;;;11.53;7.03;;;8.50;99.90;;;;;;5053674;28;20686;-63
2022/05/04 03:51:10;;;;;;;10.93;7.67;;;8.50;99.90;;;;;;5053873;28;20203;-63
2022/05/04 03:53:39;;;;;;;12.93;7.50;;;8.50;99.90;;;;;;5053416;28;20688;-64
2022/05/04 03:56:07;;;;;;;11.67;7.63;;;8.50;99.90;;;;;;5053531;28;20679;-63
2022/05/04 03:58:34;;;;;;;11.10;7.50;;;8.40;99.90;;;;;;5053423;28;20655;-64
2022/05/04 04:01:01;;;;;;;10.50;6.73;;;8.50;99.90;;;;;;5053782;28;20203;-64
2022/05/04 04:03:28;;;;;;;15.10;6.87;;;8.50;99.90;;;;;;5053688;28;20268;-63
2022/05/04 04:05:55;;;;;;;10.17;6.50;;;8.50;99.90;;;;;;5053596;28;20199;-64
2022/05/04 04:08:22;;;;;;;12.73;7.97;;;8.50;99.90;;;;;;5052971;28;20231;-65
2022/05/04 04:10:51;;;;;;;10.07;6.70;;;8.60;99.90;;;;;;5053522;28;20561;-63
2022/05/04 04:13:18;;;;;;;11.70;6.80;;;8.70;99.90;;;;;;5053330;28;20571;-63
2022/05/04 04:15:45;;;;;;;11.70;6.90;;;8.70;99.90;;;;;;5053240;28;20207;-64
2022/05/04 04:18:12;;;;;;;12.00;7.10;;;8.70;99.90;;;;;;5053376;28;20199;-63
2022/05/04 04:23:23;;;;;;;13.23;6.73;;;8.70;99.90;;;;;;5053252;28;20170;-64
2022/05/04 04:25:52;;;;;;;12.07;6.63;;;8.70;99.90;;;;;;5053199;28;20564;-64
2022/05/04 04:28:20;;;;;;;13.80;6.60;;;8.80;99.90;;;;;;5052951;28;20680;-64
2022/05/04 04:30:48;;;;;;;10.10;6.50;;;8.80;99.90;;;;;;5053200;28;20269;-63
2022/05/04 04:33:15;;;;;;;12.00;7.17;;;8.90;99.90;;;;;;5052724;28;20222;-64
2022/05/04 04:35:42;;;;;;;11.97;6.97;;;8.90;99.90;;;;;;5053075;28;20199;-63
2022/05/04 04:38:08;;;;;;;13.50;6.80;;;9.00;99.90;;;;;;5052579;28;20203;-62
2022/05/04 04:40:36;;;;;;;10.83;6.93;;;9.10;99.90;;;;;;5053195;28;20199;-63
2022/05/04 04:43:04;;;;;;;13.10;6.57;;;9.10;99.90;;;;;;5053215;28;20548;-63
2022/05/04 04:45:31;;;;;;;14.03;7.13;;;9.10;99.90;;;;;;5052903;28;20235;-63
2022/05/04 04:47:58;;;;;;;13.50;7.30;;;9.20;99.90;;;;;;5054178;28;20208;-63
2022/05/04 04:50:25;;;;;;;29.20;8.40;;;9.20;99.90;;;;;;5054842;28;20255;-64
2022/05/04 04:52:52;;;;;;;19.23;7.73;;;9.20;99.90;;;;;;5053192;28;20219;-63
2022/05/04 04:55:19;;;;;;;17.13;7.20;;;9.20;99.90;;;;;;5052882;28;20191;-63
2022/05/04 04:57:47;;;;;;;22.30;8.50;;;9.30;99.90;;;;;;5052844;28;20206;-63
2022/05/04 05:00:17;;;;;;;48.53;9.13;;;9.30;99.90;;;;;;5052660;28;20243;-62
2022/05/04 05:02:44;;;;;;;15.80;7.10;;;9.40;99.90;;;;;;5052859;28;20211;-63
2022/05/04 05:05:11;;;;;;;15.57;6.97;;;9.30;99.90;;;;;;5053225;28;20219;-63
2022/05/04 05:07:38;;;;;;;15.57;6.97;;;9.30;99.90;;;;;;5052854;28;20603;-63
2022/05/04 05:10:07;;;;;;;12.07;6.50;;;9.40;99.90;;;;;;5053337;28;20250;-62
2022/05/04 05:12:34;;;;;;;13.93;6.47;;;9.40;99.90;;;;;;5052548;28;20202;-62
2022/05/04 05:17:47;;;;;;;16.53;6.17;;;9.60;99.90;;;;;;5052702;28;20176;-63
2022/05/04 05:20:14;;;;;;;16.87;6.83;;;9.90;99.90;;;;;;5052525;28;20215;-63
2022/05/04 05:22:41;;;;;;;12.20;6.53;;;9.90;99.90;;;;;;5052610;28;20246;-63
2022/05/04 05:25:09;;;;;;;15.37;6.07;;;10.20;99.90;;;;;;5051954;28;20205;-63
2022/05/04 05:27:36;;;;;;;18.80;6.73;;;10.30;99.90;;;;;;5051829;28;20208;-62
2022/05/04 05:30:03;;;;;;;12.80;5.77;;;10.30;99.90;;;;;;5051798;28;20205;-62
2022/05/04 05:32:30;;;;;;;11.67;6.20;;;10.40;99.90;;;;;;5052078;28;20212;-63
2022/05/04 05:34:58;;;;;;;12.63;6.30;;;10.60;99.90;;;;;;5051733;28;20293;-62
2022/05/04 05:37:25;;;;;;;12.80;6.30;;;10.70;99.90;;;;;;5050677;28;20663;-63
2022/05/04 05:39:52;;;;;;;12.33;6.27;;;10.80;99.90;;;;;;5051956;28;20205;-63
2022/05/04 05:42:19;;;;;;;11.20;6.20;;;10.80;99.90;;;;;;5051913;28;20215;-63
2022/05/04 05:44:46;;;;;;;12.40;6.53;;;10.90;99.90;;;;;;5051980;28;20189;-63
2022/05/04 05:47:14;;;;;;;12.37;6.47;;;11.00;99.90;;;;;;5051802;28;20260;-63
2022/05/04 05:49:41;;;;;;;10.93;6.30;;;11.40;99.90;;;;;;5051952;28;20200;-63
2022/05/04 05:52:10;;;;;;;11.60;5.33;;;11.80;99.90;;;;;;5052130;28;20558;-63
2022/05/04 05:54:37;;;;;;;9.23;5.73;;;12.10;99.90;;;;;;5051696;28;20212;-63
2022/05/04 05:57:04;;;;;;;10.27;5.60;;;12.40;99.90;;;;;;5051859;28;20203;-63
2022/05/04 05:59:31;;;;;;;9.63;6.23;;;12.40;99.90;;;;;;5051800;28;20215;-63
2022/05/04 06:01:58;;;;;;;13.40;6.00;;;12.30;99.90;;;;;;5051751;28;20283;-63
2022/05/04 06:04:25;;;;;;;12.87;5.70;;;12.00;99.90;;;;;;5051744;28;20203;-63
2022/05/04 06:06:52;;;;;;;16.40;6.37;;;11.70;99.90;;;;;;5051776;28;20195;-63
2022/05/04 06:09:20;;;;;;;13.63;6.37;;;11.60;99.90;;;;;;5051325;28;20692;-63
2022/05/04 06:11:47;;;;;;;13.33;6.60;;;11.80;99.90;;;;;;5051669;28;20627;-63
2022/05/04 06:14:14;;;;;;;10.27;6.03;;;11.70;99.90;;;;;;5051562;28;20211;-63
2022/05/04 06:16:41;;;;;;;10.57;5.77;;;11.70;99.90;;;;;;5051518;28;20199;-63
2022/05/04 06:19:08;;;;;;;8.37;5.87;;;11.90;99.90;;;;;;5051237;28;20668;-63
2022/05/04 06:21:35;;;;;;;12.33;6.17;;;12.30;99.90;;;;;;5051610;28;20192;-65
2022/05/04 06:24:02;;;;;;;12.53;6.30;;;12.60;99.90;;;;;;5051783;28;20231;-64
2022/05/04 06:26:31;;;;;;;10.27;6.00;;;12.60;99.90;;;;;;5051527;28;20198;-64
2022/05/04 06:28:58;;;;;;;13.53;6.00;;;12.90;99.90;;;;;;5051254;28;20730;-63
2022/05/04 06:34:10;;;;;;;9.40;6.17;;;13.70;55.10;;;;;;5054635;28;20292;-64
2022/05/04 06:36:40;;;;;;;9.43;5.77;;;14.20;35.50;;;;;;5054876;28;20212;-64
2022/05/04 06:39:07;;;;;;;10.27;5.97;;;14.40;16.10;;;;;;5055210;28;20240;-65
2022/05/04 06:41:36;;;;;;;13.60;6.20;;;14.50;13.50;;;;;;5054866;28;20222;-65
2022/05/04 06:44:03;;;;;;;10.83;6.30;;;14.70;5.70;;;;;;5054836;28;20209;-65
2022/05/04 06:46:31;;;;;;;10.37;5.40;;;14.90;1.00;;;;;;5053421;28;20669;-64
2022/05/04 06:48:57;;;;;;;11.37;6.00;;;15.20;1.00;;;;;;5054305;28;20210;-65
2022/05/04 06:51:25;;;;;;;13.10;5.90;;;15.50;1.00;;;;;;5054001;28;20211;-66
2022/05/04 06:53:52;;;;;;;11.10;6.10;;;15.80;1.00;;;;;;5054646;28;20518;-63
2022/05/04 06:56:19;;;;;;;9.43;6.33;;;15.80;1.00;;;;;;5054667;28;20203;-64
2022/05/04 06:58:47;;;;;;;10.73;6.33;;;15.90;1.00;;;;;;5054518;28;20242;-64
2022/05/04 07:01:14;;;;;;;15.97;6.80;;;16.20;1.00;;;;;;5054446;28;20195;-64
2022/05/04 07:03:41;;;;;;;12.60;6.50;;;16.30;1.00;;;;;;5054548;28;20195;-65
2022/05/04 07:06:08;;;;;;;10.60;6.17;;;15.90;1.00;;;;;;5054430;28;20566;-65
2022/05/04 07:08:35;;;;;;;9.20;6.03;;;16.00;1.00;;;;;;5054114;28;20254;-64
2022/05/04 07:11:02;;;;;;;11.50;6.30;;;15.70;1.00;;;;;;5054550;28;20215;-64
2022/05/04 07:13:29;;;;;;;9.10;6.20;;;16.70;1.00;;;;;;5054256;28;20210;-64
2022/05/04 07:15:57;;;;;;;10.73;6.77;;;16.90;1.00;;;;;;5054250;28;20253;-64
2022/05/04 07:18:24;;;;;;;12.83;6.53;;;17.10;1.00;;;;;;5053995;28;20669;-63
2022/05/04 07:20:51;;;;;;;9.52;6.13;;;17.20;1.00;;;;;;5054145;28;20195;-63
2022/05/04 07:23:18;;;;;;;13.73;6.57;;;16.90;1.00;;;;;;5054017;28;20193;-63
2022/05/04 07:25:46;;;;;;;13.90;7.03;;;17.30;1.00;;;;;;5054001;28;20265;-64
2022/05/04 07:28:12;;;;;;;11.60;6.40;;;17.70;1.00;;;;;;5053946;28;20260;-64
2022/05/04 07:30:39;;;;;;;16.90;7.13;;;18.20;1.00;;;;;;5053632;28;20312;-63
2022/05/04 07:33:08;;;;;;;9.90;6.50;;;18.20;1.00;;;;;;5053925;28;20191;-63
2022/05/04 07:35:35;;;;;;;10.68;6.30;;;18.30;1.00;;;;;;5053771;28;20585;-63
2022/05/04 07:38:02;;;;;;;11.65;7.05;;;18.30;1.00;;;;;;5053473;28;20686;-64
2022/05/04 07:43:13;;;;;;;9.77;6.53;;;18.40;1.00;;;;;;5053473;28;20533;-64
2022/05/04 07:45:40;;;;;;;9.23;6.28;;;18.40;1.00;;;;;;5053653;28;20209;-64
2022/05/04 07:48:09;;;;;;;9.18;7.05;;;18.60;1.00;;;;;;5053933;28;20195;-64
2022/05/04 07:50:37;;;;;;;12.05;7.32;;;18.30;1.00;;;;;;5053636;28;20223;-64
2022/05/04 07:53:04;;;;;;;11.43;7.18;;;17.90;1.00;;;;;;5053262;28;20199;-65
2022/05/04 07:55:31;;;;;;;12.77;6.97;;;18.20;1.00;;;;;;5053557;28;20309;-64
2022/05/04 07:57:58;;;;;;;13.15;7.20;;;18.10;1.00;;;;;;5053145;28;20304;-64
2022/05/04 08:05:56;;;;;;;11.60;6.53;;;18.20;1.00;;;;;;5053349;28;20188;-64
2022/05/04 08:08:23;;;;;;;8.63;5.90;;;18.80;1.00;;;;;;5052892;28;20247;-64
2022/05/04 08:10:50;;;;;;;16.02;7.15;;;19.20;1.00;;;;;;5052877;28;20743;-65
2022/05/04 08:13:19;;;;;;;10.10;6.32;;;19.30;1.00;;;;;;5053244;28;20203;-64
2022/05/04 08:15:46;;;;;;;11.85;7.10;;;19.20;1.00;;;;;;5053165;28;20281;-64
2022/05/04 08:18:16;;;;;;;12.20;7.00;;;19.40;1.00;;;;;;5053175;28;20290;-64
2022/05/04 08:20:43;;;;;;;7.32;6.43;;;19.30;1.00;;;;;;5053023;28;20199;-64
2022/05/04 08:23:10;;;;;;;9.43;6.60;;;19.30;1.00;;;;;;5052951;28;20203;-64
2022/05/04 08:25:38;;;;;;;10.85;7.10;;;18.80;1.00;;;;;;5052941;28;20192;-65
2022/05/04 08:28:05;;;;;;;12.23;7.50;;;19.20;1.00;;;;;;5052705;28;20210;-65
2022/05/04 08:30:32;;;;;;;11.93;7.28;;;19.30;1.00;;;;;;5052382;28;20203;-65
2022/05/04 08:32:59;;;;;;;11.35;6.38;;;19.20;1.00;;;;;;5052712;28;20222;-64
2022/05/04 08:35:28;;;;;;;14.02;6.80;;;19.50;1.00;;;;;;5052066;28;20245;-64
2022/05/04 08:37:55;;;;;;;10.88;7.20;;;19.90;1.00;;;;;;5052581;28;20281;-64
2022/05/04 08:40:22;;;;;;;15.60;7.40;;;20.10;1.00;;;;;;5052389;28;20605;-65
2022/05/04 08:42:50;;;;;;;10.50;7.05;;;19.60;1.00;;;;;;5052651;28;20204;-65
2022/05/04 08:45:17;;;;;;;11.43;7.25;;;19.70;1.00;;;;;;5052448;28;20191;-65
2022/05/04 08:47:45;;;;;;;11.07;6.65;;;20.20;1.00;;;;;;5052592;28;20294;-65
2022/05/04 08:50:17;;;;;;;12.82;6.40;;;20.50;1.00;;;;;;5052555;28;20210;-65
2022/05/04 08:52:53;;;;;;;11.50;6.50;;;21.00;1.00;;;;;;5052232;28;20188;-65
2022/05/04 08:55:20;;;;;;;9.95;6.65;;;20.30;1.00;;;;;;5052227;28;20207;-65
2022/05/04 08:57:48;;;;;;;10.15;6.70;;;20.00;1.00;;;;;;5052693;28;20239;-66
2022/05/04 09:00:15;;;;;;;12.43;6.95;;;20.10;1.00;;;;;;5052276;28;20587;-65
2022/05/04 09:02:43;;;;;;;13.80;7.00;;;20.40;1.00;;;;;;5052336;28;20203;-65
2022/05/04 09:05:17;;;;;;;9.45;6.70;;;20.60;1.00;;;;;;5052398;28;20210;-65
2022/05/04 09:07:48;;;;;;;9.70;6.78;;;20.70;1.00;;;;;;5051874;28;20691;-64
2022/05/04 09:10:17;;;;;;;10.20;7.00;;;21.00;1.00;;;;;;5052041;28;20195;-65
2022/05/04 09:12:44;;;;;;;13.68;6.97;;;20.90;1.00;;;;;;5052263;28;20203;-65
2022/05/04 09:15:20;;;;;;;10.18;7.03;;;21.30;1.00;;;;;;5052078;28;20243;-65
2022/05/04 09:17:47;;;;;;;9.43;6.78;;;21.90;1.00;;;;;;5052195;28;20187;-65
2022/05/04 09:22:59;;;;;;;11.93;7.57;;;21.40;1.00;;;;;;5051852;28;20179;-65
2022/05/04 09:25:26;;;;;;;11.43;7.53;;;20.50;1.00;;;;;;5052225;28;20196;-66
2022/05/04 09:27:53;;;;;;;11.75;8.13;;;21.20;1.00;;;;;;5051741;28;20211;-66
2022/05/04 09:30:25;;;;;;;13.43;8.20;;;20.90;1.00;;;;;;5051982;28;20560;-66
2022/05/04 09:32:52;;;;;;;9.55;7.40;;;21.00;1.00;;;;;;5052052;28;20188;-65
2022/05/04 09:35:19;;;;;;;10.60;7.82;;;21.60;1.00;;;;;;5051920;28;20216;-65
2022/05/04 09:46:08;;;;;;;13.73;9.23;;;22.10;1.00;;;;;;5051789;28;20313;-66
2022/05/04 09:48:36;;;;;;;13.55;7.97;;;20.70;1.00;;;;;;5051484;28;20230;-65
2022/05/04 09:51:06;;;;;;;13.68;7.65;;;20.50;1.00;;;;;;5051890;28;20238;-62
2022/05/04 09:53:34;;;;;;;13.63;12.05;;;19.90;1.00;;;;;;5051072;28;20286;-62
2022/05/04 09:56:03;;;;;;;9.70;8.02;;;19.50;1.00;;;;;;5051829;28;20223;-62
2022/05/04 09:58:31;;;;;;;10.88;7.13;;;19.90;1.00;;;;;;5051807;28;20200;-62
2022/05/04 10:00:59;;;;;;;11.57;7.18;;;20.60;1.00;;;;;;5051502;28;20199;-62
2022/05/04 10:03:26;;;;;;;12.18;6.95;;;20.90;1.00;;;;;;5051794;28;20564;-61
2022/05/04 10:05:55;;;;;;;9.10;7.07;;;21.10;1.00;;;;;;5054717;28;20203;-62
2022/05/04 10:08:23;;;;;;;8.90;6.88;;;21.30;1.00;;;;;;5055207;28;20300;-62
2022/05/04 10:10:54;;;;;;;7.97;6.88;;;21.60;1.00;;;;;;5054426;28;20253;-62
2022/05/04 10:13:25;;;;;;;9.30;7.10;;;21.80;1.00;;;;;;5055791;28;20194;-62
2022/05/04 10:15:56;;;;;;;11.18;6.90;;;21.20;1.00;;;;;;5055119;28;20221;-61
2022/05/04 10:18:27;;;;;;;9.25;7.25;;;20.90;1.00;;;;;;5055548;28;20184;-61
2022/05/04 10:21:01;;;;;;;9.70;7.25;;;21.70;1.00;;;;;;5055370;28;20187;-62
2022/05/04 10:23:31;;;;;;;10.32;7.25;;;22.10;1.00;;;;;;5055332;28;20207;-61
2022/05/04 10:25:59;;;;;;;8.10;6.45;;;22.50;1.00;;;;;;5055492;28;20203;-62
2022/05/04 10:28:27;;;;;;;11.25;7.70;;;21.90;1.00;;;;;;5055022;28;20560;-61
2022/05/04 10:30:55;;;;;;;9.38;6.72;;;21.50;1.00;;;;;;5055153;28;20195;-62
2022/05/04 10:33:25;;;;;;;9.43;7.72;;;22.20;1.00;;;;;;5055207;28;20226;-61
2022/05/04 10:35:53;;;;;;;10.13;7.18;;;22.50;1.00;;;;;;5055099;28;20203;-61
2022/05/04 10:38:30;;;;;;;10.15;7.80;;;23.40;1.00;;;;;;5054975;28;20203;-62
2022/05/04 10:40:59;;;;;;;10.15;7.75;;;23.50;1.00;;;;;;5054763;28;20183;-62
2022/05/04 10:43:36;;;;;;;11.55;7.28;;;23.10;1.00;;;;;;5055037;28;20287;-62
2022/05/04 10:46:08;;;;;;;11.32;7.38;;;23.50;1.00;;;;;;5053770;28;20184;-62
2022/05/04 10:48:36;;;;;;;8.77;6.68;;;23.10;1.00;;;;;;5054886;28;20544;-62
2022/05/04 10:51:10;;;;;;;7.97;6.18;;;23.20;1.00;;;;;;5054563;28;20303;-61
2022/05/04 10:53:40;;;;;;;11.00;6.55;;;23.50;1.00;;;;;;5054284;28;20183;-60
2022/05/04 10:56:09;;;;;;;10.57;6.85;;;23.70;1.00;;;;;;5055735;28;20254;-64
2022/05/04 10:58:40;;;;;;;8.73;6.25;;;23.30;1.00;;;;;;5055026;28;20200;-63
2022/05/04 11:01:13;;;;;;;8.32;6.43;;;23.60;1.00;;;;;;5054505;28;20631;-61
2022/05/04 11:03:56;;;;;;;7.90;6.47;;;23.20;1.00;;;;;;5054345;28;20191;-61
2022/05/04 11:06:28;;;;;;;9.10;7.07;;;23.40;1.00;;;;;;5054229;28;20608;-61
2022/05/04 11:08:58;;;;;;;9.05;6.90;;;23.80;1.00;;;;;;5054239;28;20269;-61
2022/05/04 11:11:25;;;;;;;11.38;7.80;;;23.70;1.00;;;;;;5054058;28;20207;-61
2022/05/04 11:13:54;;;;;;;9.02;7.47;;;23.50;1.00;;;;;;5054401;28;20286;-62
2022/05/04 11:16:23;;;;;;;9.73;6.88;;;23.30;1.00;;;;;;5053598;28;20215;-62
2022/05/04 11:18:50;;;;;;;15.40;6.68;;;22.80;1.00;;;;;;5053616;28;20207;-62
2022/05/04 11:21:18;;;;;;;8.90;6.60;;;23.30;1.00;;;;;;5053920;28;20191;-61
2022/05/04 11:23:50;;;;;;;8.88;7.00;;;23.40;1.00;;;;;;5053993;28;20229;-61
2022/05/04 11:26:19;;;;;;;10.93;7.15;;;23.40;1.00;;;;;;5054123;28;20206;-61
2022/05/04 11:28:46;;;;;;;7.47;6.50;;;23.60;1.00;;;;;;5054049;28;20203;-61
2022/05/04 11:31:15;;;;;;;7.57;6.15;;;23.40;1.00;;;;;;5053797;28;20195;-61
2022/05/04 11:33:44;;;;;;;9.43;6.70;;;23.20;1.00;;;;;;5053702;28;20199;-60
2022/05/04 11:36:11;;;;;;;7.95;7.15;;;23.40;1.00;;;;;;5053777;28;20216;-60
2022/05/04 11:38:38;;;;;;;8.13;6.78;;;23.40;1.00;;;;;;5054022;28;20738;-60
2022/05/04 11:41:08;;;;;;;8.15;7.35;;;23.40;1.00;;;;;;5053670;28;20207;-61
2022/05/04 11:43:37;;;;;;;8.25;6.93;;;23.60;1.00;;;;;;5054589;28;20607;-61
2022/05/04 11:46:06;;;;;;;7.88;7.03;;;23.70;1.00;;;;;;5052989;28;20280;-61
2022/05/04 11:48:36;;;;;;;9.68;7.93;;;23.90;1.00;;;;;;5053658;28;20257;-61
2022/05/04 11:51:03;;;;;;;10.48;7.95;;;23.30;1.00;;;;;;5053833;28;20191;-61
2022/05/04 11:53:30;;;;;;;8.20;7.18;;;22.50;1.00;;;;;;5053814;28;20246;-61
2022/05/04 11:55:59;;;;;;;8.60;7.32;;;22.70;1.00;;;;;;5053800;28;20277;-62
2022/05/04 11:58:27;;;;;;;9.25;7.50;;;22.80;1.00;;;;;;5053454;28;20282;-61
2022/05/04 12:00:54;;;;;;;7.88;6.72;;;22.40;1.00;;;;;;5053326;28;20215;-61
2022/05/04 12:03:23;;;;;;;7.28;6.45;;;23.30;1.00;;;;;;5053127;28;20672;-62
2022/05/04 12:05:53;;;;;;;14.10;7.32;;;23.30;1.00;;;;;;5053427;28;20198;-62
2022/05/04 12:08:20;;;;;;;9.43;7.30;;;23.50;1.00;;;;;;5053228;28;20627;-62
2022/05/04 12:10:48;;;;;;;13.35;8.10;;;23.30;1.00;;;;;;5052901;28;20207;-62
2022/05/04 12:13:19;;;;;;;9.13;7.70;;;22.90;1.00;;;;;;5053256;28;20191;-63
2022/05/04 12:15:47;;;;;;;9.40;8.00;;;22.80;1.00;;;;;;5052810;28;20687;-62
2022/05/04 12:18:14;;;;;;;12.00;7.90;;;22.90;1.00;;;;;;5053124;28;20203;-62
2022/05/04 12:20:44;;;;;;;7.68;6.88;;;23.20;1.00;;;;;;5052752;28;20196;-62
2022/05/04 12:23:13;;;;;;;8.77;6.60;;;22.50;1.00;;;;;;5052705;28;20191;-62
2022/05/04 12:25:41;;;;;;;8.88;6.47;;;22.10;1.00;;;;;;5052930;28;20203;-63
2022/05/04 12:28:08;;;;;;;12.00;7.90;;;22.60;1.00;;;;;;5052212;28;20199;-62
2022/05/04 12:33:30;;;;;;;10.40;7.78;;;22.50;1.00;;;;;;5053309;28;20183;-63
2022/05/04 12:35:59;;;;;;;11.93;8.32;;;23.10;1.00;;;;;;5052438;28;20216;-61
2022/05/04 12:38:28;;;;;;;8.30;7.18;;;23.20;1.00;;;;;;5052297;28;20214;-62
2022/05/04 12:40:56;;;;;;;7.93;7.13;;;23.20;1.00;;;;;;5052958;28;20199;-62
2022/05/04 12:43:24;;;;;;;7.80;7.00;;;23.40;1.00;;;;;;5052435;28;20208;-64
2022/05/04 12:45:54;;;;;;;9.23;7.13;;;23.20;1.00;;;;;;5052560;28;20199;-64
2022/05/04 12:48:24;;;;;;;10.38;7.13;;;23.10;1.00;;;;;;5052875;28;20175;-64
2022/05/04 12:50:53;;;;;;;10.23;8.13;;;22.80;1.00;;;;;;5052511;28;20207;-64
2022/05/04 12:53:20;;;;;;;10.05;7.45;;;22.20;1.00;;;;;;5052413;28;20199;-64
2022/05/04 12:58:32;;;;;;;7.82;6.97;;;22.70;1.00;;;;;;5052048;28;20237;-65
2022/05/04 13:00:59;;;;;;;14.25;8.32;;;22.70;1.00;;;;;;5052224;28;20206;-63
2022/05/04 13:03:26;;;;;;;8.43;7.53;;;23.10;1.00;;;;;;5052382;28;20214;-63
2022/05/04 13:05:53;;;;;;;11.55;8.07;;;22.90;1.00;;;;;;5052530;28;20298;-64
2022/05/04 13:08:21;;;;;;;9.73;7.00;;;22.60;1.00;;;;;;5052189;28;20231;-63
2022/05/04 13:10:49;;;;;;;8.80;6.70;;;22.90;1.00;;;;;;5052196;28;20660;-64
2022/05/04 13:13:19;;;;;;;8.45;6.65;;;22.80;1.00;;;;;;5052187;28;20298;-64
2022/05/04 13:15:47;;;;;;;7.68;6.60;;;22.60;1.00;;;;;;5051984;28;20216;-64
2022/05/04 13:18:14;;;;;;;8.60;6.95;;;22.50;1.00;;;;;;5052138;28;20203;-64
2022/05/04 13:20:42;;;;;;;7.05;6.35;;;22.30;1.00;;;;;;5052162;28;20206;-63
2022/05/04 13:23:09;;;;;;;9.02;6.60;;;22.20;1.00;;;;;;5052313;28;20199;-63
2022/05/04 13:25:36;;;;;;;10.18;7.50;;;21.80;1.00;;;;;;5052139;28;20191;-64
2022/05/04 13:28:05;;;;;;;9.00;6.80;;;22.10;1.00;;;;;;5052199;28;20199;-63
2022/05/04 13:30:32;;;;;;;10.40;7.40;;;22.10;1.00;;;;;;5052272;28;20597;-62
2022/05/04 13:33:01;;;;;;;10.65;8.35;;;21.80;1.00;;;;;;5052098;28;20218;-62